createdAt,value
2019-06-01T00:02:54.424Z,1.60
2019-06-01T00:07:40.756Z,1.80
2019-06-01T00:12:34.074Z,1.67
2019-06-01T00:17:27.815Z,1.80
2019-06-01T00:22:21.751Z,1.70
2019-06-01T00:27:15.610Z,1.80
2019-06-01T00:32:09.700Z,1.80
2019-06-01T00:37:03.895Z,2.03
2019-06-01T00:41:57.767Z,1.70
2019-06-01T00:46:52.693Z,1.67
2019-06-01T00:51:45.373Z,1.60
2019-06-01T00:56:39.154Z,1.60
2019-06-01T01:01:33.068Z,1.50
2019-06-01T01:06:26.592Z,1.63
2019-06-01T01:11:20.431Z,1.73
2019-06-01T01:16:14.327Z,1.53
2019-06-01T01:21:08.123Z,1.63
2019-06-01T01:26:02.013Z,1.47
2019-06-01T01:31:06.890Z,2.03
2019-06-01T01:35:49.740Z,1.93
2019-06-01T01:40:43.452Z,1.60
2019-06-01T01:45:37.248Z,2.00
2019-06-01T01:50:30.854Z,1.70
2019-06-01T01:55:25.044Z,2.10
2019-06-01T02:00:32.261Z,1.53
2019-06-01T02:05:25.801Z,1.90
2019-06-01T02:10:19.717Z,1.60
2019-06-01T02:15:13.412Z,1.67
2019-06-01T02:20:06.948Z,2.13
2019-06-01T02:25:01.983Z,1.90
2019-06-01T02:29:55.309Z,1.93
2019-06-01T02:34:48.455Z,2.00
2019-06-01T02:39:42.361Z,1.60
2019-06-01T02:44:35.881Z,1.73
2019-06-01T02:49:29.605Z,1.70
2019-06-01T02:54:23.503Z,2.10
2019-06-01T02:59:17.402Z,2.00
2019-06-01T03:04:11.175Z,2.27
2019-06-01T03:09:06.805Z,1.93
2019-06-01T03:14:00.364Z,2.10
2019-06-01T03:18:53.877Z,1.97
2019-06-01T03:23:47.774Z,2.10
2019-06-01T03:28:41.675Z,2.20
2019-06-01T03:33:35.438Z,1.80
2019-06-01T03:38:29.041Z,2.03
2019-06-01T03:43:22.814Z,1.93
2019-06-01T03:48:16.727Z,1.73
2019-06-01T03:53:10.184Z,2.10
2019-06-01T03:58:04.993Z,2.00
2019-06-01T04:02:57.874Z,1.67
2019-06-01T04:07:51.771Z,1.80
2019-06-01T04:12:45.562Z,1.60
2019-06-01T04:17:39.303Z,1.90
2019-06-01T04:22:33.219Z,1.43
2019-06-01T04:27:27.745Z,1.93
2019-06-01T04:32:22.184Z,1.50
2019-06-01T04:37:15.920Z,1.50
2019-06-01T04:42:09.785Z,1.90
2019-06-01T04:47:04.283Z,1.90
2019-06-01T04:51:57.487Z,1.70
2019-06-01T04:56:51.413Z,1.40
2019-06-01T05:01:44.880Z,1.43
2019-06-01T05:06:38.743Z,1.57
2019-06-01T05:11:32.534Z,1.57
2019-06-01T05:16:26.767Z,1.47
2019-06-01T05:21:21.021Z,1.60
2019-06-01T05:26:15.079Z,1.60
2019-06-01T05:31:12.959Z,1.73
2019-06-01T05:36:02.738Z,1.50
2019-06-01T05:40:56.510Z,1.83
2019-06-01T05:45:50.381Z,1.90
2019-06-01T05:50:44.192Z,1.80
2019-06-01T05:55:37.868Z,1.77
2019-06-01T06:00:41.428Z,1.47
2019-06-01T06:05:55.282Z,1.60
2019-06-01T06:10:55.409Z,1.60
2019-06-01T06:16:08.740Z,1.90
2019-06-01T06:21:22.407Z,1.47
2019-06-01T06:26:35.199Z,1.93
2019-06-01T06:31:47.976Z,1.80
2019-06-01T06:37:00.550Z,1.83
2019-06-01T06:42:14.063Z,1.30
2019-06-01T06:47:26.777Z,1.80
2019-06-01T06:52:40.068Z,1.70
2019-06-01T06:57:53.177Z,1.50
2019-06-01T07:03:05.872Z,1.53
2019-06-01T07:08:19.717Z,1.37
2019-06-01T07:13:32.507Z,1.80
2019-06-01T07:18:45.739Z,1.47
2019-06-01T07:23:59.484Z,1.90
2019-06-01T07:29:13.179Z,1.70
2019-06-01T07:34:33.542Z,2.13
2019-06-01T07:39:39.167Z,1.80
2019-06-01T07:44:52.819Z,2.30
2019-06-01T07:50:06.047Z,1.60
2019-06-01T07:55:18.978Z,2.13
2019-06-01T08:00:33.232Z,2.40
2019-06-01T08:05:45.371Z,1.90
2019-06-01T08:10:59.318Z,1.80
2019-06-01T08:16:12.111Z,2.07
2019-06-01T08:21:26.049Z,2.90
2019-06-01T08:26:24.890Z,2.50
2019-06-01T08:31:18.785Z,3.17
2019-06-01T08:36:12.161Z,2.07
2019-06-01T08:41:05.983Z,2.47
2019-06-01T08:45:59.286Z,2.60
2019-06-01T08:50:52.849Z,2.17
2019-06-01T08:55:46.226Z,2.60
2019-06-01T09:00:39.522Z,2.50
2019-06-01T09:05:33.150Z,2.47
2019-06-01T09:10:27.387Z,2.67
2019-06-01T09:15:19.744Z,2.60
2019-06-01T09:20:13.156Z,2.90
2019-06-01T09:25:06.526Z,2.23
2019-06-01T09:29:59.862Z,2.80
2019-06-01T09:34:53.258Z,2.80
2019-06-01T09:39:46.559Z,3.00
2019-06-01T09:44:40.033Z,2.57
2019-06-01T09:49:34.116Z,2.30
2019-06-01T09:54:27.328Z,2.20
2019-06-01T09:59:20.071Z,2.67
2019-06-01T10:04:13.534Z,2.13
2019-06-01T10:09:07.748Z,2.20
2019-06-01T10:14:01.210Z,2.73
2019-06-01T10:18:54.561Z,2.50
2019-06-01T10:23:49.731Z,2.20
2019-06-01T10:28:41.909Z,2.60
2019-06-01T10:33:34.898Z,2.73
2019-06-01T10:38:28.095Z,2.90
2019-06-01T10:43:21.702Z,2.40
2019-06-01T10:48:15.186Z,2.20
2019-06-01T10:53:08.850Z,2.80
2019-06-01T10:58:02.194Z,2.50
2019-06-01T11:02:55.619Z,2.30
2019-06-01T11:07:48.938Z,2.30
2019-06-01T11:12:43.265Z,2.10
2019-06-01T11:17:37.054Z,2.40
2019-06-01T11:22:30.023Z,2.17
2019-06-01T11:27:23.366Z,2.00
2019-06-01T11:32:16.813Z,1.97
2019-06-01T11:37:15.042Z,1.80
2019-06-01T11:42:03.870Z,2.47
2019-06-01T11:46:57.286Z,2.50
2019-06-01T11:51:50.651Z,2.53
2019-06-01T11:56:43.960Z,2.33
2019-06-01T12:01:37.764Z,1.93
2019-06-01T12:06:31.285Z,1.80
2019-06-01T12:11:24.999Z,2.20
2019-06-01T12:16:18.489Z,1.80
2019-06-01T12:21:12.151Z,1.70
2019-06-01T12:26:05.807Z,1.80
2019-06-01T12:30:59.160Z,1.87
2019-06-01T12:35:52.495Z,2.10
2019-06-01T12:40:45.837Z,2.10
2019-06-01T12:45:39.668Z,1.83
2019-06-01T12:50:32.732Z,1.90
2019-06-01T12:55:26.697Z,1.70
2019-06-01T13:00:20.035Z,2.00
2019-06-01T13:05:13.489Z,1.87
2019-06-01T13:10:06.934Z,1.70
2019-06-01T13:15:00.554Z,1.60
2019-06-01T13:19:53.897Z,1.90
2019-06-01T13:24:47.877Z,1.80
2019-06-01T13:29:41.614Z,1.80
2019-06-01T13:34:34.531Z,2.43
2019-06-01T13:39:27.441Z,3.50
2019-06-01T13:44:20.803Z,3.23
2019-06-01T13:49:14.125Z,3.10
2019-06-01T13:54:07.567Z,2.40
2019-06-01T13:59:00.869Z,2.50
2019-06-01T14:03:55.663Z,2.77
2019-06-01T14:08:47.606Z,2.40
2019-06-01T14:13:41.338Z,2.37
2019-06-01T14:18:34.636Z,2.30
2019-06-01T14:23:28.148Z,2.07
2019-06-01T14:28:21.459Z,2.10
2019-06-01T14:33:14.953Z,1.90
2019-06-01T14:38:08.631Z,2.10
2019-06-01T14:43:02.264Z,1.97
2019-06-01T14:47:55.999Z,2.00
2019-06-01T14:52:49.630Z,2.20
2019-06-01T14:57:42.593Z,2.30
2019-06-01T15:02:36.096Z,2.10
2019-06-01T15:07:29.411Z,2.03
2019-06-01T15:12:22.853Z,2.10
2019-06-01T15:17:16.165Z,2.10
2019-06-01T15:22:09.648Z,1.90
2019-06-01T15:27:03.269Z,2.10
2019-06-01T15:31:57.950Z,1.70
2019-06-01T15:36:51.443Z,2.30
2019-06-01T15:41:43.439Z,1.80
2019-06-01T15:46:36.769Z,1.60
2019-06-01T15:51:30.229Z,1.90
2019-06-01T15:56:23.916Z,1.60
2019-06-01T16:01:18.048Z,1.73
2019-06-01T16:06:11.572Z,1.43
2019-06-01T16:11:06.630Z,1.47
2019-06-01T16:16:01.935Z,2.10
2019-06-01T16:20:53.888Z,1.80
2019-06-01T16:25:56.221Z,1.60
2019-06-01T16:30:39.590Z,1.47
2019-06-01T16:35:33.381Z,1.60
2019-06-01T16:40:27.128Z,1.43
2019-06-01T16:45:20.739Z,2.00
2019-06-01T16:50:14.094Z,1.50
2019-06-01T16:55:07.556Z,1.50
2019-06-01T17:00:00.964Z,1.40
2019-06-01T17:04:54.253Z,1.47
2019-06-01T17:09:47.618Z,1.40
2019-06-01T17:14:41.014Z,1.20
2019-06-01T17:19:34.352Z,1.50
2019-06-01T17:24:28.399Z,1.40
2019-06-01T17:29:21.748Z,1.57
2019-06-01T17:34:15.138Z,1.37
2019-06-01T17:39:08.716Z,1.20
2019-06-01T17:44:02.619Z,1.53
2019-06-01T17:48:55.575Z,1.30
2019-06-01T17:53:48.964Z,1.30
2019-06-01T17:58:42.295Z,1.13
2019-06-01T18:03:35.732Z,1.40
2019-06-01T18:08:29.369Z,1.00
2019-06-01T18:13:22.902Z,1.40
2019-06-01T18:18:16.241Z,1.10
2019-06-01T18:23:11.390Z,1.40
2019-06-01T18:28:04.426Z,1.20
2019-06-01T18:32:56.912Z,1.20
2019-06-01T18:37:50.260Z,0.87
2019-06-01T18:42:43.924Z,1.20
2019-06-01T18:47:37.595Z,1.10
2019-06-01T18:52:31.376Z,1.20
2019-06-01T18:57:24.742Z,1.17
2019-06-01T19:02:18.730Z,1.00
2019-06-01T19:07:15.523Z,0.90
2019-06-01T19:12:09.601Z,0.90
2019-06-01T19:17:03.518Z,1.03
2019-06-01T19:21:57.214Z,1.00
2019-06-01T19:26:50.561Z,1.17
2019-06-01T19:31:44.597Z,1.07
2019-06-01T19:36:37.933Z,0.90
2019-06-01T19:41:44.238Z,1.07
2019-06-01T19:46:31.319Z,1.10
2019-06-01T19:51:24.815Z,1.30
2019-06-01T19:56:20.056Z,1.23
2019-06-01T20:01:12.277Z,1.20
2019-06-01T20:06:06.286Z,1.57
2019-06-01T20:11:00.147Z,1.30
2019-06-01T20:15:55.345Z,1.70
2019-06-01T20:20:50.458Z,1.50
2019-06-01T20:25:43.956Z,1.47
2019-06-01T20:30:37.329Z,1.57
2019-06-01T20:35:32.851Z,1.40
2019-06-01T20:40:26.762Z,1.50
2019-06-01T20:45:21.046Z,1.43
2019-06-01T20:50:14.910Z,1.80
2019-06-01T20:55:08.685Z,1.80
2019-06-01T21:00:02.029Z,1.60
2019-06-01T21:04:55.941Z,1.80
2019-06-01T21:09:49.780Z,1.70
2019-06-01T21:14:43.335Z,2.00
2019-06-01T21:19:36.672Z,1.90
2019-06-01T21:24:30.200Z,2.10
2019-06-01T21:29:23.510Z,2.23
2019-06-01T21:34:17.172Z,1.77
2019-06-01T21:39:10.469Z,1.90
2019-06-01T21:44:03.911Z,2.20
2019-06-01T21:48:57.230Z,2.23
2019-06-01T21:53:50.643Z,2.23
2019-06-01T21:58:43.944Z,2.03
2019-06-01T22:03:37.419Z,2.30
2019-06-01T22:08:30.892Z,2.10
2019-06-01T22:13:27.080Z,2.47
2019-06-01T22:18:19.468Z,2.80
2019-06-01T22:23:12.100Z,2.33
2019-06-01T22:28:04.837Z,3.07
2019-06-01T22:32:58.676Z,2.47
2019-06-01T22:37:51.655Z,2.57
2019-06-01T22:42:45.072Z,2.73
2019-06-01T22:47:38.413Z,2.53
2019-06-01T22:52:31.956Z,2.90
2019-06-01T22:57:26.590Z,3.07
2019-06-01T23:02:18.865Z,5.50
2019-06-01T23:07:12.309Z,5.93
2019-06-01T23:12:05.943Z,6.07
2019-06-01T23:16:59.302Z,6.97
2019-06-01T23:21:53.003Z,6.83
2019-06-01T23:26:46.357Z,6.97
2019-06-01T23:31:39.770Z,6.63
2019-06-01T23:36:33.121Z,7.40
2019-06-01T23:41:26.651Z,7.10
2019-06-01T23:46:19.874Z,7.07
2019-06-01T23:51:13.544Z,6.33
2019-06-01T23:56:07.299Z,6.40
